createdAt,value
2018-11-02T00:00:43.529Z,97.74
2018-11-02T00:03:11.081Z,97.34
2018-11-02T00:05:38.711Z,98.12
2018-11-02T00:08:07.264Z,98.70
2018-11-02T00:10:34.883Z,98.46
2018-11-02T00:13:02.094Z,98.28
2018-11-02T00:15:29.350Z,98.10
2018-11-02T00:17:56.537Z,98.31
2018-11-02T00:20:23.815Z,97.46
2018-11-02T00:22:51.201Z,97.84
2018-11-02T00:25:18.428Z,97.78
2018-11-02T00:27:45.748Z,97.07
2018-11-02T00:30:12.987Z,97.14
2018-11-02T00:32:40.186Z,97.38
2018-11-02T00:35:08.121Z,97.29
2018-11-02T00:37:35.370Z,96.92
2018-11-02T00:40:02.620Z,97.19
2018-11-02T00:42:30.049Z,97.80
2018-11-02T00:44:58.357Z,97.74
2018-11-02T00:47:25.604Z,97.51
2018-11-02T00:49:52.767Z,97.90
2018-11-02T00:52:19.997Z,98.44
2018-11-02T00:54:47.189Z,98.32
2018-11-02T00:57:14.361Z,98.88
2018-11-02T00:59:41.613Z,98.78
2018-11-02T01:02:08.788Z,99.05
2018-11-02T01:04:36.060Z,98.81
2018-11-02T01:07:03.309Z,99.04
2018-11-02T01:09:30.497Z,100.00
2018-11-02T01:11:57.700Z,100.00
2018-11-02T01:14:24.945Z,100.00
2018-11-02T01:16:52.254Z,100.00
2018-11-02T01:19:22.057Z,100.00
2018-11-02T01:21:49.318Z,100.00
2018-11-02T01:24:16.523Z,100.00
2018-11-02T01:26:43.699Z,100.00
2018-11-02T01:29:10.920Z,100.00
2018-11-02T01:31:38.109Z,100.00
2018-11-02T01:34:05.340Z,100.00
2018-11-02T01:36:32.604Z,100.00
2018-11-02T01:38:59.796Z,100.00
2018-11-02T01:41:26.980Z,100.00
2018-11-02T01:43:54.229Z,100.00
2018-11-02T01:46:21.408Z,100.00
2018-11-02T01:48:48.693Z,100.00
2018-11-02T01:51:15.935Z,100.00
2018-11-02T01:53:43.121Z,100.00
2018-11-02T01:56:10.306Z,100.00
2018-11-02T01:58:37.537Z,100.00
2018-11-02T02:01:04.807Z,100.00
2018-11-02T02:03:32.000Z,100.00
2018-11-02T02:05:59.249Z,100.00
2018-11-02T02:08:26.468Z,100.00
2018-11-02T02:10:53.641Z,100.00
2018-11-02T02:13:20.939Z,100.00
2018-11-02T02:15:48.106Z,100.00
2018-11-02T02:18:15.293Z,100.00
2018-11-02T02:20:42.535Z,100.00
2018-11-02T02:23:09.773Z,100.00
2018-11-02T02:25:36.950Z,100.00
2018-11-02T02:28:04.246Z,100.00
2018-11-02T02:30:31.414Z,100.00
2018-11-02T02:32:58.603Z,100.00
2018-11-02T02:35:25.866Z,100.00
2018-11-02T02:37:53.036Z,100.00
2018-11-02T02:40:20.295Z,100.00
2018-11-02T02:42:47.534Z,100.00
2018-11-02T02:45:14.776Z,100.00
2018-11-02T02:47:41.973Z,100.00
2018-11-02T02:50:11.677Z,100.00
2018-11-02T02:52:38.866Z,100.00
2018-11-02T02:55:06.656Z,100.00
2018-11-02T02:57:34.223Z,100.00
2018-11-02T03:00:01.454Z,100.00
2018-11-02T03:02:28.794Z,100.00
2018-11-02T03:05:04.706Z,100.00
2018-11-02T03:07:32.029Z,100.00
2018-11-02T03:09:59.269Z,100.00
2018-11-02T03:12:26.633Z,100.00
2018-11-02T03:14:53.825Z,100.00
2018-11-02T03:17:21.054Z,100.00
2018-11-02T03:19:48.260Z,100.00
2018-11-02T03:22:15.448Z,100.00
2018-11-02T03:24:42.647Z,100.00
2018-11-02T03:27:09.972Z,100.00
2018-11-02T03:29:37.189Z,100.00
2018-11-02T03:32:04.969Z,100.00
2018-11-02T03:34:32.229Z,100.00
2018-11-02T03:36:59.438Z,100.00
2018-11-02T03:39:26.624Z,100.00
2018-11-02T03:41:53.931Z,100.00
2018-11-02T03:44:21.110Z,100.00
2018-11-02T03:46:48.295Z,100.00
2018-11-02T03:49:15.647Z,100.00
2018-11-02T03:51:42.915Z,100.00
2018-11-02T03:54:10.263Z,100.00
2018-11-02T03:56:37.517Z,100.00
2018-11-02T03:59:04.677Z,100.00
2018-11-02T04:01:31.913Z,100.00
2018-11-02T04:03:59.284Z,100.00
2018-11-02T04:06:26.476Z,100.00
2018-11-02T04:08:53.684Z,100.00
2018-11-02T04:11:25.740Z,100.00
2018-11-02T04:13:52.932Z,100.00
2018-11-02T04:16:20.121Z,100.00
2018-11-02T04:18:47.345Z,100.00
2018-11-02T04:21:14.560Z,100.00
2018-11-02T04:23:45.996Z,100.00
2018-11-02T04:26:13.289Z,100.00
2018-11-02T04:28:40.492Z,100.00
2018-11-02T04:31:07.742Z,100.00
2018-11-02T04:33:34.911Z,100.00
2018-11-02T04:36:02.140Z,100.00
2018-11-02T04:38:29.328Z,100.00
2018-11-02T04:40:56.844Z,100.00
2018-11-02T04:43:24.046Z,100.00
2018-11-02T04:45:51.208Z,100.00
2018-11-02T04:48:18.461Z,100.00
2018-11-02T04:50:45.725Z,100.00
2018-11-02T04:53:12.916Z,100.00
2018-11-02T04:55:40.242Z,100.00
2018-11-02T04:58:07.446Z,100.00
2018-11-02T05:00:34.670Z,100.00
2018-11-02T05:03:02.611Z,100.00
2018-11-02T05:05:29.760Z,100.00
2018-11-02T05:07:56.959Z,100.00
2018-11-02T05:10:24.193Z,100.00
2018-11-02T05:12:51.397Z,100.00
2018-11-02T05:15:18.589Z,100.00
2018-11-02T05:17:45.826Z,100.00
2018-11-02T05:20:14.920Z,100.00
2018-11-02T05:22:42.143Z,100.00
2018-11-02T05:25:09.923Z,100.00
2018-11-02T05:27:37.337Z,100.00
2018-11-02T05:30:05.330Z,100.00
2018-11-02T05:32:32.580Z,100.00
2018-11-02T05:34:59.776Z,100.00
2018-11-02T05:37:26.949Z,100.00
2018-11-02T05:39:54.200Z,100.00
2018-11-02T05:42:21.384Z,100.00
2018-11-02T05:44:48.792Z,100.00
2018-11-02T05:47:16.116Z,100.00
2018-11-02T05:49:43.307Z,99.84
2018-11-02T05:52:12.516Z,99.67
2018-11-02T05:54:40.217Z,99.59
2018-11-02T05:57:07.764Z,99.12
2018-11-02T05:59:34.965Z,99.67
2018-11-02T06:02:02.195Z,99.43
2018-11-02T06:04:29.371Z,99.59
2018-11-02T06:06:56.621Z,100.00
2018-11-02T06:09:23.873Z,100.00
2018-11-02T06:11:51.066Z,100.00
2018-11-02T06:14:18.308Z,100.00
2018-11-02T06:16:45.583Z,100.00
2018-11-02T06:19:12.813Z,100.00
2018-11-02T06:21:39.975Z,99.93
2018-11-02T06:24:07.221Z,100.00
2018-11-02T06:26:34.491Z,100.00
2018-11-02T06:29:01.644Z,100.00
2018-11-02T06:31:29.017Z,100.00
2018-11-02T06:33:56.208Z,100.00
2018-11-02T06:36:23.421Z,100.00
2018-11-02T06:38:50.801Z,100.00
2018-11-02T06:41:17.932Z,100.00
2018-11-02T06:43:45.228Z,100.00
2018-11-02T06:46:12.627Z,100.00
2018-11-02T06:48:39.899Z,100.00
2018-11-02T06:51:07.201Z,100.00
2018-11-02T06:53:39.880Z,99.97
2018-11-02T06:56:07.146Z,100.00
2018-11-02T06:58:34.333Z,99.73
2018-11-02T07:01:01.762Z,100.00
2018-11-02T07:03:29.017Z,99.13
2018-11-02T07:05:56.670Z,99.45
2018-11-02T07:08:24.161Z,99.16
2018-11-02T07:10:51.338Z,97.79
2018-11-02T07:13:18.527Z,97.13
2018-11-02T07:15:46.257Z,97.21
2018-11-02T07:18:13.431Z,94.52
2018-11-02T07:20:41.058Z,95.55
2018-11-02T07:23:08.393Z,95.81
2018-11-02T07:25:36.268Z,96.22
2018-11-02T07:28:03.578Z,95.58
2018-11-02T07:30:30.784Z,95.49
2018-11-02T07:32:58.104Z,94.94
2018-11-02T07:35:25.258Z,95.53
2018-11-02T07:37:52.488Z,96.04
2018-11-02T07:40:19.673Z,94.84
2018-11-02T07:42:46.948Z,95.08
2018-11-02T07:45:14.285Z,95.04
2018-11-02T07:47:41.538Z,94.06
2018-11-02T07:50:10.238Z,93.76
2018-11-02T07:52:37.593Z,92.13
2018-11-02T07:55:06.745Z,90.49
2018-11-02T07:57:34.300Z,89.49
2018-11-02T08:00:03.648Z,89.56
2018-11-02T08:02:30.840Z,89.17
2018-11-02T08:04:58.013Z,89.70
2018-11-02T08:07:26.853Z,86.40
2018-11-02T08:09:54.119Z,86.18
2018-11-02T08:12:21.278Z,86.05
2018-11-02T08:14:49.358Z,85.12
2018-11-02T08:17:16.541Z,83.61
2018-11-02T08:19:44.733Z,85.20
2018-11-02T08:22:12.009Z,83.86
2018-11-02T08:24:39.253Z,86.28
2018-11-02T08:27:06.320Z,81.84
2018-11-02T08:29:33.519Z,83.99
2018-11-02T08:32:00.891Z,83.36
2018-11-02T08:34:28.125Z,84.45
2018-11-02T08:36:55.455Z,84.29
2018-11-02T08:39:22.692Z,83.91
2018-11-02T08:41:49.933Z,84.33
2018-11-02T08:44:17.572Z,84.10
2018-11-02T08:46:44.760Z,84.78
2018-11-02T08:49:12.075Z,84.31
2018-11-02T08:51:39.298Z,85.12
2018-11-02T08:54:06.919Z,85.01
2018-11-02T08:56:34.171Z,82.02
2018-11-02T08:59:01.397Z,82.35
2018-11-02T09:01:28.632Z,81.66
2018-11-02T09:03:55.806Z,81.12
2018-11-02T09:06:23.008Z,80.59
2018-11-02T09:08:50.221Z,80.47
2018-11-02T09:11:17.525Z,79.29
2018-11-02T09:13:44.962Z,76.42
2018-11-02T09:16:12.123Z,76.37
2018-11-02T09:18:40.300Z,73.42
2018-11-02T09:21:07.514Z,75.62
2018-11-02T09:23:34.854Z,75.53
2018-11-02T09:26:02.096Z,73.97
2018-11-02T09:28:29.288Z,73.57
2018-11-02T09:30:56.446Z,72.64
2018-11-02T09:33:23.719Z,73.60
2018-11-02T09:35:50.995Z,75.15
2018-11-02T09:38:18.192Z,73.11
2018-11-02T09:40:45.373Z,73.33
2018-11-02T09:43:12.605Z,72.80
2018-11-02T09:45:39.896Z,73.31
2018-11-02T09:48:07.135Z,71.68
2018-11-02T09:50:34.374Z,72.74
2018-11-02T09:53:01.568Z,70.13
2018-11-02T09:55:28.916Z,68.61
2018-11-02T09:57:56.147Z,70.11
2018-11-02T10:00:23.481Z,68.45
2018-11-02T10:02:50.669Z,70.29
2018-11-02T10:05:17.934Z,68.69
2018-11-02T10:07:45.180Z,67.63
2018-11-02T10:10:12.715Z,64.66
2018-11-02T10:12:40.121Z,65.97
2018-11-02T10:15:10.048Z,66.78
2018-11-02T10:17:37.242Z,66.32
2018-11-02T10:20:05.443Z,65.58
2018-11-02T10:22:32.647Z,65.23
2018-11-02T10:24:59.870Z,66.20
2018-11-02T10:27:27.116Z,65.66
2018-11-02T10:29:54.354Z,66.99
2018-11-02T10:32:21.602Z,68.15
2018-11-02T10:34:48.879Z,66.88
2018-11-02T10:37:16.241Z,67.38
2018-11-02T10:39:43.725Z,67.91
2018-11-02T10:42:11.125Z,68.41
2018-11-02T10:44:40.305Z,68.77
2018-11-02T10:47:08.334Z,69.32
2018-11-02T10:49:35.625Z,68.56
2018-11-02T10:52:03.068Z,67.16
2018-11-02T10:54:30.400Z,68.58
2018-11-02T10:56:57.799Z,69.84
2018-11-02T10:59:25.149Z,70.47
2018-11-02T11:01:58.010Z,68.59
2018-11-02T11:04:25.324Z,69.05
2018-11-02T11:06:52.590Z,70.22
2018-11-02T11:09:19.899Z,70.36
2018-11-02T11:11:47.349Z,69.07
2018-11-02T11:14:14.427Z,69.82
2018-11-02T11:16:41.777Z,70.01
2018-11-02T11:19:09.783Z,69.21
2018-11-02T11:21:37.727Z,69.01
2018-11-02T11:24:05.115Z,70.21
2018-11-02T11:26:32.400Z,70.83
2018-11-02T11:28:59.775Z,69.35
2018-11-02T11:31:27.177Z,68.52
2018-11-02T11:33:54.461Z,66.71
2018-11-02T11:36:21.773Z,70.94
2018-11-02T11:38:49.080Z,68.18
2018-11-02T11:41:16.342Z,65.06
2018-11-02T11:43:43.635Z,65.78
2018-11-02T11:46:11.025Z,63.85
2018-11-02T11:48:38.317Z,63.26
2018-11-02T11:51:05.733Z,61.88
2018-11-02T11:53:33.165Z,60.72
2018-11-02T11:56:00.412Z,60.29
2018-11-02T11:58:27.674Z,61.66
2018-11-02T12:00:54.974Z,58.68
2018-11-02T12:03:22.242Z,60.71
2018-11-02T12:05:49.518Z,58.95
2018-11-02T12:08:16.865Z,58.11
2018-11-02T12:10:44.136Z,58.79
2018-11-02T12:13:11.364Z,59.17
2018-11-02T12:15:38.761Z,57.52
2018-11-02T12:18:06.061Z,60.59
2018-11-02T12:20:33.333Z,59.02
2018-11-02T12:23:01.974Z,59.37
2018-11-02T12:25:29.298Z,59.61
2018-11-02T12:27:56.590Z,60.93
2018-11-02T12:30:23.860Z,60.76
2018-11-02T12:32:51.150Z,62.61
2018-11-02T12:35:19.096Z,62.54
2018-11-02T12:37:46.590Z,63.07
2018-11-02T12:40:15.133Z,62.97
2018-11-02T12:42:42.962Z,64.82
2018-11-02T12:45:11.803Z,64.81
2018-11-02T12:47:39.664Z,65.28
2018-11-02T12:50:14.761Z,63.83
2018-11-02T12:52:42.621Z,64.81
2018-11-02T12:55:10.305Z,65.01
2018-11-02T12:57:37.739Z,65.49
2018-11-02T13:00:07.406Z,64.11
2018-11-02T13:02:34.668Z,66.99
2018-11-02T13:05:02.065Z,67.17
2018-11-02T13:07:29.597Z,67.12
2018-11-02T13:09:56.945Z,68.05
2018-11-02T13:12:24.312Z,67.09
2018-11-02T13:14:51.744Z,67.35
2018-11-02T13:17:19.217Z,66.77
2018-11-02T13:19:46.483Z,65.38
2018-11-02T13:22:13.915Z,65.32
2018-11-02T13:24:41.189Z,65.46
2018-11-02T13:27:08.643Z,65.70
2018-11-02T13:29:35.940Z,66.59
2018-11-02T13:32:03.291Z,66.32
2018-11-02T13:34:30.751Z,66.26
2018-11-02T13:36:58.158Z,64.39
2018-11-02T13:39:25.492Z,64.66
2018-11-02T13:41:52.958Z,63.54
2018-11-02T13:44:20.205Z,64.98
2018-11-02T13:46:47.473Z,64.99
2018-11-02T13:49:14.858Z,65.92
2018-11-02T13:51:42.065Z,64.24
2018-11-02T13:54:09.226Z,64.19
2018-11-02T13:56:36.438Z,64.93
2018-11-02T13:59:03.992Z,64.13
2018-11-02T14:01:31.141Z,65.08
2018-11-02T14:03:58.418Z,65.24
2018-11-02T14:06:25.580Z,63.18
2018-11-02T14:08:52.765Z,64.19
2018-11-02T14:11:20.366Z,64.39
2018-11-02T14:13:47.668Z,64.68
2018-11-02T14:16:14.872Z,64.26
2018-11-02T14:18:42.173Z,64.98
2018-11-02T14:21:09.380Z,65.87
2018-11-02T14:23:36.649Z,66.43
2018-11-02T14:26:03.902Z,66.14
2018-11-02T14:28:31.068Z,68.33
2018-11-02T14:30:58.273Z,66.08
2018-11-02T14:33:25.622Z,67.38
2018-11-02T14:35:52.811Z,68.28
2018-11-02T14:38:19.997Z,69.27
2018-11-02T14:40:47.217Z,69.62
2018-11-02T14:43:14.392Z,69.36
2018-11-02T14:45:41.590Z,70.56
2018-11-02T14:48:08.809Z,72.05
2018-11-02T14:50:35.973Z,73.41
2018-11-02T14:53:03.180Z,74.03
2018-11-02T14:55:30.450Z,75.04
2018-11-02T14:57:57.720Z,75.88
2018-11-02T15:00:24.896Z,76.63
2018-11-02T15:02:52.112Z,77.42
2018-11-02T15:05:19.268Z,78.11
2018-11-02T15:07:46.482Z,78.82
2018-11-02T15:10:13.694Z,79.63
2018-11-02T15:12:40.876Z,79.10
2018-11-02T15:15:09.256Z,79.74
2018-11-02T15:17:36.471Z,79.69
2018-11-02T15:20:05.012Z,80.72
2018-11-02T15:22:32.180Z,81.34
2018-11-02T15:24:59.392Z,81.79
2018-11-02T15:27:26.837Z,83.16
2018-11-02T15:29:54.021Z,82.80
2018-11-02T15:32:21.248Z,83.37
2018-11-02T15:34:48.438Z,84.21
2018-11-02T15:37:15.617Z,84.33
2018-11-02T15:39:42.804Z,84.76
2018-11-02T15:42:09.996Z,85.19
2018-11-02T15:44:37.320Z,85.00
2018-11-02T15:47:04.923Z,85.70
2018-11-02T15:49:32.091Z,85.92
2018-11-02T15:51:59.265Z,87.06
2018-11-02T15:54:26.510Z,87.58
2018-11-02T15:56:53.690Z,87.52
2018-11-02T15:59:20.876Z,88.33
2018-11-02T16:01:48.096Z,88.55
2018-11-02T16:04:15.257Z,88.09
2018-11-02T16:06:42.505Z,87.85
2018-11-02T16:09:12.044Z,89.85
2018-11-02T16:11:39.257Z,90.26
2018-11-02T16:14:06.430Z,89.77
2018-11-02T16:16:33.623Z,89.61
2018-11-02T16:19:00.784Z,89.02
2018-11-02T16:21:28.009Z,89.87
2018-11-02T16:23:55.290Z,91.13
2018-11-02T16:26:22.489Z,91.52
2018-11-02T16:28:49.666Z,92.03
2018-11-02T16:31:16.905Z,91.58
2018-11-02T16:33:44.128Z,91.82
2018-11-02T16:36:11.300Z,91.52
2018-11-02T16:38:38.518Z,90.79
2018-11-02T16:41:05.705Z,91.67
2018-11-02T16:43:32.925Z,92.45
2018-11-02T16:46:00.409Z,92.71
2018-11-02T16:48:27.584Z,92.54
2018-11-02T16:50:54.757Z,92.07
2018-11-02T16:53:21.959Z,91.44
2018-11-02T16:55:49.103Z,92.03
2018-11-02T16:58:16.268Z,93.42
2018-11-02T17:00:43.518Z,94.78
2018-11-02T17:03:10.661Z,94.67
2018-11-02T17:05:37.837Z,93.72
2018-11-02T17:08:05.068Z,94.15
2018-11-02T17:10:32.239Z,94.17
2018-11-02T17:12:59.408Z,94.47
2018-11-02T17:15:26.640Z,94.93
2018-11-02T17:17:53.834Z,95.01
2018-11-02T17:20:21.005Z,96.06
2018-11-02T17:22:48.312Z,95.99
2018-11-02T17:25:15.878Z,95.85
2018-11-02T17:27:43.057Z,96.37
2018-11-02T17:30:12.884Z,96.29
2018-11-02T17:32:40.089Z,96.67
2018-11-02T17:35:08.323Z,96.40
2018-11-02T17:37:35.815Z,97.01
2018-11-02T17:40:03.200Z,96.69
2018-11-02T17:42:30.402Z,96.52
2018-11-02T17:44:58.217Z,97.42
2018-11-02T17:47:25.591Z,97.78
2018-11-02T17:49:53.329Z,98.37
2018-11-02T17:52:20.569Z,98.52
2018-11-02T17:54:48.065Z,97.92
2018-11-02T17:57:15.265Z,98.68
2018-11-02T17:59:42.751Z,99.14
2018-11-02T18:02:10.034Z,100.00
2018-11-02T18:04:37.273Z,100.00
2018-11-02T18:07:05.072Z,100.00
2018-11-02T18:09:32.269Z,99.73
2018-11-02T18:11:59.564Z,99.67
2018-11-02T18:14:26.930Z,100.00
2018-11-02T18:16:54.314Z,100.00
2018-11-02T18:19:21.624Z,100.00
2018-11-02T18:21:48.892Z,99.68
2018-11-02T18:24:16.287Z,99.51
2018-11-02T18:26:43.427Z,99.25
2018-11-02T18:29:10.805Z,99.01
2018-11-02T18:31:38.286Z,99.27
2018-11-02T18:34:05.448Z,98.83
2018-11-02T18:36:32.814Z,98.92
2018-11-02T18:39:00.327Z,98.60
2018-11-02T18:41:27.633Z,99.04
2018-11-02T18:43:54.924Z,98.65
2018-11-02T18:46:22.227Z,98.44
2018-11-02T18:48:49.589Z,99.10
2018-11-02T18:51:16.884Z,98.95
2018-11-02T18:53:44.234Z,99.51
2018-11-02T18:56:11.565Z,99.79
2018-11-02T18:58:38.910Z,98.96
2018-11-02T19:01:06.069Z,98.91
2018-11-02T19:03:33.367Z,99.09
2018-11-02T19:06:00.610Z,99.49
2018-11-02T19:08:27.795Z,99.49
2018-11-02T19:10:54.970Z,99.35
2018-11-02T19:13:22.219Z,99.18
2018-11-02T19:15:49.535Z,98.92
2018-11-02T19:18:16.909Z,99.00
2018-11-02T19:20:44.295Z,99.91
2018-11-02T19:23:11.534Z,100.00
2018-11-02T19:25:38.896Z,99.75
2018-11-02T19:28:06.196Z,100.00
2018-11-02T19:30:33.381Z,100.00
2018-11-02T19:33:00.870Z,100.00
2018-11-02T19:35:28.898Z,100.00
2018-11-02T19:37:56.119Z,100.00
2018-11-02T19:40:23.349Z,100.00
2018-11-02T19:42:50.744Z,100.00
2018-11-02T19:45:17.961Z,100.00
2018-11-02T19:47:50.935Z,100.00
2018-11-02T19:50:18.961Z,100.00
2018-11-02T19:52:46.196Z,100.00
2018-11-02T19:55:13.826Z,100.00
2018-11-02T19:57:42.415Z,100.00
2018-11-02T20:00:11.242Z,100.00
2018-11-02T20:02:39.004Z,100.00
2018-11-02T20:05:07.635Z,100.00
2018-11-02T20:07:34.810Z,100.00
2018-11-02T20:10:02.203Z,100.00
2018-11-02T20:12:29.380Z,100.00
2018-11-02T20:14:56.572Z,99.32
2018-11-02T20:17:23.867Z,100.00
2018-11-02T20:19:51.040Z,100.00
2018-11-02T20:22:18.286Z,100.00
2018-11-02T20:24:45.580Z,100.00
2018-11-02T20:27:12.792Z,100.00
2018-11-02T20:29:39.997Z,100.00
2018-11-02T20:32:07.376Z,100.00
2018-11-02T20:34:34.529Z,100.00
2018-11-02T20:37:01.705Z,100.00
2018-11-02T20:39:28.965Z,100.00
2018-11-02T20:41:56.117Z,100.00
2018-11-02T20:44:23.321Z,100.00
2018-11-02T20:46:50.554Z,100.00
2018-11-02T20:49:17.772Z,100.00
2018-11-02T20:51:45.094Z,100.00
2018-11-02T20:54:12.321Z,100.00
2018-11-02T20:56:39.508Z,100.00
2018-11-02T20:59:06.647Z,100.00
2018-11-02T21:01:34.027Z,100.00
2018-11-02T21:04:01.211Z,100.00
2018-11-02T21:06:28.496Z,100.00
2018-11-02T21:08:55.923Z,100.00
2018-11-02T21:11:23.061Z,100.00
2018-11-02T21:13:50.213Z,100.00
2018-11-02T21:16:17.509Z,100.00
2018-11-02T21:18:44.666Z,100.00
2018-11-02T21:21:11.905Z,100.00
2018-11-02T21:23:39.125Z,100.00
2018-11-02T21:26:06.334Z,100.00
2018-11-02T21:28:33.508Z,100.00
2018-11-02T21:31:00.810Z,100.00
2018-11-02T21:33:27.996Z,100.00
2018-11-02T21:35:55.171Z,100.00
2018-11-02T21:38:22.475Z,100.00
2018-11-02T21:40:49.663Z,100.00
2018-11-02T21:43:16.851Z,100.00
2018-11-02T21:45:44.091Z,100.00
2018-11-02T21:48:11.293Z,100.00
2018-11-02T21:50:38.467Z,100.00
2018-11-02T21:53:05.784Z,100.00
2018-11-02T21:55:32.972Z,100.00
2018-11-02T21:58:00.181Z,100.00
2018-11-02T22:00:27.497Z,100.00
2018-11-02T22:02:54.631Z,100.00
2018-11-02T22:05:21.892Z,100.00
2018-11-02T22:07:49.963Z,100.00
2018-11-02T22:10:17.538Z,100.00
2018-11-02T22:12:44.730Z,100.00
2018-11-02T22:15:11.994Z,100.00
2018-11-02T22:17:39.845Z,100.00
2018-11-02T22:20:08.365Z,100.00
2018-11-02T22:22:35.653Z,100.00
2018-11-02T22:25:02.860Z,100.00
2018-11-02T22:27:30.070Z,100.00
2018-11-02T22:29:57.381Z,100.00
2018-11-02T22:32:24.664Z,100.00
2018-11-02T22:34:51.842Z,100.00
2018-11-02T22:37:19.097Z,100.00
2018-11-02T22:39:46.328Z,100.00
2018-11-02T22:42:13.546Z,100.00
2018-11-02T22:44:40.745Z,100.00
2018-11-02T22:47:07.928Z,100.00
2018-11-02T22:49:35.124Z,100.00
2018-11-02T22:52:02.445Z,100.00
2018-11-02T22:54:29.664Z,100.00
2018-11-02T22:56:56.825Z,100.00
2018-11-02T22:59:24.069Z,100.00
2018-11-02T23:01:51.268Z,100.00
2018-11-02T23:04:18.456Z,100.00
2018-11-02T23:06:45.813Z,100.00
2018-11-02T23:09:13.165Z,100.00
2018-11-02T23:11:40.548Z,100.00
2018-11-02T23:14:07.930Z,100.00
2018-11-02T23:16:35.149Z,100.00
2018-11-02T23:19:02.419Z,100.00
2018-11-02T23:21:29.672Z,100.00
2018-11-02T23:23:56.848Z,100.00
2018-11-02T23:26:24.005Z,100.00
2018-11-02T23:28:51.299Z,100.00
2018-11-02T23:31:18.471Z,100.00
2018-11-02T23:33:46.051Z,100.00
2018-11-02T23:36:13.301Z,100.00
2018-11-02T23:38:40.509Z,100.00
2018-11-02T23:41:07.719Z,100.00
2018-11-02T23:43:35.218Z,100.00
2018-11-02T23:46:02.511Z,100.00
2018-11-02T23:48:29.923Z,100.00
2018-11-02T23:50:57.191Z,100.00
2018-11-02T23:53:24.360Z,100.00
2018-11-02T23:55:51.525Z,100.00
2018-11-02T23:58:18.995Z,100.00
